• Join FlightAware (Why Join?)
  • Login
  • US Flag 
02:13AM EST


 

Airport Tracker/Info


-or-


 

Live Flight TrackerFlight Track Log ✈ SWA189 ✈ 22-May-2013 ✈ KLAX - KMDW

Flight Track Log - Related Links

Times and Time Zones

All times are in EDT time to prevent confusion due to time zone crossing. See the SWA189 flight status page for this flight to view local times or setup timezone preferences in your user account.

Time Position Orientation Groundspeed Altitude Reporting Facility
EDT Latitude Longitude Course Direction KTS MPH feet Rate Location/Type
10:19PM 33.9461 -118.4578 54° Northeast 165 190 1,600  Level Los Angeles Center
10:20PM 33.9406 -118.5267 264° West 206 237 3,600 2,820 Climbing Los Angeles Center
10:21PM 33.8981 -118.5936 233° Southwest 261 300 7,400 3,180 Climbing Los Angeles Center
10:22PM 33.8592 -118.5231 124° Southeast 310 357 10,200 2,220 Climbing Los Angeles Center
10:23PM 33.9283 -118.4394 45° Northeast 355 409 12,100 1,980 Climbing Los Angeles Center
10:24PM 33.9806 -118.3544 53° Northeast 384 442 14,300 2,640 Climbing Los Angeles Center
10:25PM 34.3290 -117.7239 54° Northeast  Level FlightAware Approximate
10:25PM 34.0553 -118.2186 56° Northeast 401 461 17,600  Level Los Angeles Center
10:26PM 34.1214 -118.1006 56° Northeast 418 481 20,200 2,400 Climbing Los Angeles Center
10:28PM 34.1900 -117.9797 56° Northeast 432 497 22,600 2,220 Climbing Los Angeles Center
10:29PM 34.2589 -117.8569 56° Northeast 442 509 24,800 1,920 Climbing Los Angeles Center
10:30PM 34.3292 -117.7306 56° Northeast 451 519 26,600 1,860 Climbing Los Angeles Center
10:31PM 34.4122 -117.5811 56° Northeast 461 531 28,700 1,560 Climbing Los Angeles Center
10:32PM 34.4703 -117.4747 56° Northeast 470 541 29,900 1,380 Climbing Los Angeles Center
10:33PM 34.5589 -117.3144 56° Northeast 480 552 31,600 1,560 Climbing Los Angeles Center
10:34PM 34.6358 -117.1819 55° Northeast 485 558 33,200 1,380 Climbing Los Angeles Center
10:35PM 34.7244 -117.0633 48° Northeast 480 552 34,500 1,320 Climbing Los Angeles Center
10:36PM 34.8294 -116.9203 48° Northeast 477 549 36,200 1,080 Climbing Los Angeles Center
10:37PM 34.9322 -116.7747 49° Northeast 477 549 37,000 360 Climbing Los Angeles Center
10:38PM 35.0203 -116.6528 49° Northeast 479 551 37,000  Level Los Angeles Center
10:39PM 35.1075 -116.5319 49° Northeast 479 551 37,000  Level Los Angeles Center
10:40PM 35.1981 -116.4106 48° Northeast 481 554 37,000  Level Los Angeles Center
10:41PM 35.2867 -116.2864 49° Northeast 484 557 37,000  Level Los Angeles Center
10:42PM 35.3914 -116.1353 50° Northeast 478 550 37,000  Level Los Angeles Center
10:43PM 35.4756 -116.0203 48° Northeast 466 536 37,000  Level Los Angeles Center
10:44PM 35.5575 -115.9039 49° Northeast 452 520 37,000  Level Los Angeles Center
10:45PM 35.6428 -115.7917 47° Northeast 459 528 37,000  Level Los Angeles Center
10:46PM 35.7283 -115.6672 50° Northeast 469 540 37,000  Level Los Angeles Center
10:47PM 35.8328 -115.5164 49° Northeast 480 552 37,000  Level Los Angeles Center
10:48PM 35.9194 -115.3911 49° Northeast 484 557 37,000  Level Los Angeles Center
10:49PM 35.9886 -115.2917 49° Northeast 483 556 37,000  Level Los Angeles Center
10:50PM 36.0553 -115.1111 65° Northeast 491 565 37,000  Level Los Angeles Center
10:51PM 36.0994 -114.9531 71° East 489 563 37,000  Level Los Angeles Center
10:52PM 36.1458 -114.7936 70° East 494 568 37,000  Level Los Angeles Center
10:53PM 36.2014 -114.6014 70° East 496 571 37,000  Level Los Angeles Center
10:54PM 36.2469 -114.4397 71° East 498 573 37,000  Level Los Angeles Center
10:55PM 36.2922 -114.2794 71° East 494 568 37,000  Level Los Angeles Center
10:57PM 36.3378 -114.1183 71° East 496 571 37,000  Level Los Angeles Center
10:58PM 36.3831 -113.9583 71° East 494 568 37,000  Level Los Angeles Center
10:59PM 36.4269 -113.7992 71° East 489 563 37,000  Level Los Angeles Center
11:00PM 36.4714 -113.6386 71° East 491 565 37,000  Level Los Angeles Center
11:01PM 36.5258 -113.4403 71° East 495 570 37,000  Level Los Angeles Center
11:02PM 36.5786 -113.2461 71° East 497 572 37,000  Level Los Angeles Center
11:03PM 36.6228 -113.0861 71° East 493 567 37,000  Level Los Angeles Center
11:04PM 36.6664 -112.9261 71° East 491 565 37,000  Level Los Angeles Center
11:05PM 36.7094 -112.7650 72° East 492 566 37,000  Level Los Angeles Center
11:06PM 36.7519 -112.6050 72° East 492 566 37,000  Level Los Angeles Center
11:07PM 36.7944 -112.4450 72° East 490 564 37,000  Level Los Angeles Center
11:08PM 36.8450 -112.2536 72° East 488 562 37,000  Level Los Angeles Center
11:09PM 36.8861 -112.0947 72° East 485 558 37,000  Level Los Angeles Center
11:10PM 36.9278 -111.9356 72° East 485 558 37,000  Level Los Angeles Center
11:11PM 36.9689 -111.7778 72° East 482 555 37,000  Level Los Angeles Center
11:12PM 37.0097 -111.6181 72° East 483 556 37,000  Level Los Angeles Center
11:12PM 37.0286 -111.5514 70° East 487 560 37,000  Level Denver Center
11:13PM 37.0658 -111.3925 74° East 481 554 37,000  Level Denver Center
11:14PM 37.1081 -111.2314 72° East 487 560 37,000  Level Denver Center
11:16PM 37.1472 -111.0694 73° East 488 562 37,000  Level Denver Center
11:17PM 37.1875 -110.9083 73° East 488 562 37,000  Level Denver Center
11:18PM 37.2272 -110.7464 73° East 488 562 37,000  Level Denver Center
11:19PM 37.2756 -110.5519 73° East 489 563 37,000  Level Denver Center
11:20PM 37.3153 -110.3883 73° East 491 565 37,000  Level Denver Center
11:21PM 37.3542 -110.2261 73° East 488 562 37,000  Level Denver Center
11:22PM 37.3947 -110.0569 73° East 489 563 37,000  Level Denver Center
11:23PM 37.4319 -109.9000 73° East 489 563 37,000  Level Denver Center
11:24PM 37.4736 -109.7458 71° East 487 560 37,000  Level Denver Center
11:25PM 37.5406 -109.5758 64° Northeast 486 559 37,000  Level Denver Center
11:26PM 37.5986 -109.4325 63° Northeast 481 554 37,000  Level Denver Center
11:27PM 37.6658 -109.2633 63° Northeast 481 554 37,000  Level Denver Center
11:28PM 37.7225 -109.1217 63° Northeast 476 548 37,000  Level Denver Center
11:29PM 37.7564 -108.9647 75° East 486 559 37,000  Level Denver Center
11:30PM 37.7947 -108.7825 75° East 482 555 37,000  Level Denver Center
11:31PM 37.8294 -108.6269 74° East 480 552 37,000  Level Denver Center
11:32PM 37.8633 -108.4728 74° East 477 549 37,000  Level Denver Center
11:33PM 37.9025 -108.2914 75° East 477 549 37,000 480 Level Denver Center
11:34PM 37.9367 -108.1344 75° East 482 555 38,000 780 Climbing Denver Center
11:35PM 37.9753 -107.9494 75° East 484 557 38,700 480 Climbing Denver Center
11:36PM 38.0089 -107.7914 75° East 486 559 39,000 120 Climbing Denver Center
11:37PM 38.0422 -107.6303 75° East 490 564 39,000  Level Denver Center
11:38PM 38.0811 -107.4433 75° East 492 566 39,000  Level Denver Center
11:39PM 38.1128 -107.2925 75° East 484 557 39,000  Level Denver Center
11:40PM 38.1464 -107.1306 75° East 483 556 39,000  Level Denver Center
11:41PM 38.1789 -106.9656 76° East 484 557 39,000  Level Denver Center
11:42PM 38.2186 -106.7667 76° East 484 557 39,000  Level Denver Center
11:43PM 38.2506 -106.6103 75° East 481 554 39,000  Level Denver Center
11:44PM 38.2839 -106.4389 76° East 481 554 39,000  Level Denver Center
11:45PM 38.3164 -106.2742 76° East 480 552 39,000  Level Denver Center
11:46PM 38.3517 -106.1028 75° East 484 557 39,000  Level Denver Center
11:47PM 38.3833 -105.9422 76° East 487 560 39,000  Level Denver Center
11:48PM 38.4175 -105.7569 77° East 483 556 39,000  Level Denver Center
11:49PM 38.4486 -105.5953 76° East 487 560 39,000  Level Denver Center
11:50PM 38.4789 -105.4350 76° East 487 560 39,000  Level Denver Center
11:51PM 38.5144 -105.2464 76° East 488 562 39,000  Level Denver Center
11:52PM 38.5447 -105.0833 77° East 490 564 39,000  Level Denver Center
11:53PM 38.5783 -104.8972 77° East 485 558 39,000  Level Denver Center
11:54PM 38.6075 -104.7378 77° East 481 554 39,000  Level Denver Center
11:55PM 38.6361 -104.5775 77° East 482 555 39,000  Level Denver Center
11:56PM 38.6692 -104.3936 77° East 477 549 39,000  Level Denver Center
11:57PM 38.6961 -104.2344 78° East 477 549 39,000  Level Denver Center
11:58PM 38.7244 -104.0769 77° East 475 547 39,000  Level Denver Center
11:59PM 38.7569 -103.8922 77° East 474 545 39,000  Level Denver Center
12:00AM 38.7831 -103.7328 78° East 477 549 39,000  Level Denver Center
12:01AM 38.8111 -103.5736 77° East 479 551 39,000  Level Denver Center
12:02AM 38.8431 -103.3878 77° East 477 549 39,000  Level Denver Center
12:04AM 38.8697 -103.2281 78° East 478 550 39,000  Level Denver Center
12:05AM 38.9008 -103.0414 78° East 478 550 39,000  Level Denver Center
12:06AM 38.9228 -102.9089 78° East 477 549 39,000  Level Denver Center
12:07AM 38.9558 -102.7044 78° East 484 557 39,000  Level Denver Center
12:08AM 38.9817 -102.5419 78° East 485 558 39,000  Level Denver Center
12:09AM 39.0131 -102.3514 78° East 487 560 39,000  Level Denver Center
12:10AM 39.0383 -102.1897 79° East 484 557 39,000  Level Denver Center
12:11AM 39.0636 -102.0247 79° East 488 562 39,000  Level Denver Center
12:12AM 39.0936 -101.8356 78° East 484 557 39,000  Level Denver Center
12:13AM 39.1183 -101.6792 78° East 482 555 39,000  Level Denver Center
12:14AM 39.1472 -101.4889 79° East 485 558 39,000  Level Denver Center
12:15AM 39.1711 -101.3275 79° East 482 555 39,000  Level Denver Center
12:16AM 39.1953 -101.1633 79° East 487 560 39,000  Level Denver Center
12:17AM 39.2242 -100.9739 79° East 484 557 39,000  Level Denver Center
12:18AM 39.2472 -100.8103 80° East 485 558 39,000  Level Denver Center
12:19AM 39.2747 -100.6222 79° East 481 554 39,000  Level Denver Center
12:20AM 39.2981 -100.4589 79° East 483 556 39,000  Level Denver Center
12:21AM 39.3208 -100.2981 80° East 478 550 39,000  Level Denver Center
12:22AM 39.3472 -100.1075 80° East 482 555 39,000  Level Denver Center
12:23AM 39.3692 -99.9433 80° East 485 558 39,000  Level Denver Center
12:24AM 39.3956 -99.7525 80° East 484 557 39,000  Level Denver Center
12:25AM 39.4178 -99.5914 80° East 480 552 39,000  Level Denver Center
12:26AM 39.4392 -99.4294 80° East 480 552 39,000  Level Denver Center
12:27AM 39.4622 -99.2564 80° East 483 556 39,000  Level Denver Center
12:28AM 39.4844 -99.0853 80° East 484 557 39,000  Level Denver Center
12:29AM 39.5069 -98.9139 80° East 484 557 39,000  Level Denver Center
12:30AM 39.5278 -98.7389 81° East 490 564 39,000  Level Denver Center
12:31AM 39.5464 -98.5953 80° East 493 567 39,000  Level Kansas City Center
12:32AM 39.5644 -98.4431 81° East 490 564 39,000  Level Kansas City Center
12:33AM 39.5864 -98.2661 81° East 492 566 39,000  Level Kansas City Center
12:34AM 39.6119 -98.0556 81° East 492 566 39,000  Level Kansas City Center
12:35AM 39.6336 -97.8794 81° East 493 567 39,000  Level Kansas City Center
12:35AM 39.6433 -97.7964 81° East 489 563 39,000  Level Minneapolis Center
12:36AM 39.6669 -97.5944 81° East 488 562 39,000  Level Minneapolis Center
12:37AM 39.6731 -97.5514 80° East 485 558 39,000  Level Kansas City Center
12:38AM 39.6925 -97.3772 82° East 486 559 39,000  Level Kansas City Center
12:39AM 39.7131 -97.1883 82° East 482 555 39,000  Level Kansas City Center
12:40AM 39.7328 -97.0158 81° East 481 554 39,000  Level Kansas City Center
12:41AM 39.7506 -96.8458 82° East 474 545 39,000  Level Kansas City Center
12:42AM 39.7683 -96.6836 82° East 474 545 39,000  Level Kansas City Center
12:43AM 39.7889 -96.4950 82° East 472 543 39,000  Level Kansas City Center
12:44AM 39.8061 -96.3253 82° East 474 545 39,000  Level Kansas City Center
12:45AM 39.8242 -96.1508 82° East 481 554 39,000  Level Kansas City Center
12:46AM 39.8422 -95.9725 82° East 477 549 39,000  Level Kansas City Center
12:47AM 39.8586 -95.8114 82° East 475 547 39,000  Level Kansas City Center
12:48AM 39.8758 -95.6439 82° East 484 557 39,000  Level Kansas City Center
12:49AM 39.8947 -95.4475 83° East 488 562 39,000  Level Kansas City Center
12:50AM 39.9106 -95.2808 83° East 485 558 39,000  Level Kansas City Center
12:51AM 39.9267 -95.1142 83° East 483 556 39,000  Level Kansas City Center
12:52AM 39.9447 -94.9200 83° East 482 555 39,000  Level Kansas City Center
12:53AM 39.9594 -94.7542 83° East 480 552 39,000  Level Kansas City Center
12:54AM 39.9739 -94.5875 83° East 482 555 39,000  Level Kansas City Center
12:55AM 39.9917 -94.3944 83° East 480 552 39,000  Level Kansas City Center
12:56AM 40.0061 -94.2278 83° East 482 555 39,000  Level Kansas City Center
12:57AM 40.0181 -94.0750 84° East 484 557 39,000  Level Kansas City Center
12:58AM 40.0350 -93.8653 84° East 488 562 39,000  Level Kansas City Center
12:59AM 40.0478 -93.6908 84° East 487 560 39,000  Level Kansas City Center
01:00AM 40.0628 -93.5189 83° East 483 556 39,000  Level Kansas City Center
01:01AM 40.0767 -93.3433 84° East 488 562 39,000  Level Kansas City Center
01:02AM 40.0908 -93.1706 84° East 486 559 39,000  Level Kansas City Center
01:03AM 40.1042 -92.9931 84° East 490 564 39,000  Level Kansas City Center
01:04AM 40.1189 -92.7967 84° East 487 560 39,000  Level Kansas City Center
01:05AM 40.1300 -92.6275 85° East 487 560 39,000  Level Kansas City Center
01:06AM 40.1517 -92.4600 80° East 488 562 39,000  Level Kansas City Center
01:07AM 40.1994 -92.2819 71° East 491 565 39,000  Level Kansas City Center
01:08AM 40.2328 -92.1147 75° East 484 557 39,000  Level Kansas City Center
01:09AM 40.2675 -91.9483 75° East 481 554 39,000  Level Kansas City Center
01:10AM 40.3008 -91.7819 75° East 479 551 39,000  Level Kansas City Center
01:11AM 40.3350 -91.6150 75° East 478 550 39,000  Level Kansas City Center
01:12AM 40.3944 -91.4597 63° Northeast 480 552 39,000  Level Kansas City Center
01:13AM 40.4556 -91.3061 62° Northeast 480 552 39,000  Level Kansas City Center
01:14AM 40.5144 -91.1514 63° Northeast 482 555 39,000  Level Kansas City Center
01:15AM 40.5739 -90.9936 64° Northeast 482 555 39,000  Level Kansas City Center
01:16AM 40.6344 -90.8353 63° Northeast 483 556 39,000  Level Kansas City Center
01:17AM 40.7064 -90.6431 64° Northeast 485 558 39,000  Level Kansas City Center
01:18AM 40.7672 -90.4842 63° Northeast 485 558 39,000 -1,200 Level Kansas City Center
01:19AM 40.8272 -90.3228 64° Northeast 486 559 36,600 -2,820 Descending Kansas City Center
01:20AM 40.8881 -90.1597 64° Northeast 489 563 33,400 -3,540 Descending Kansas City Center
01:21AM 40.9597 -89.9675 64° Northeast 489 563 29,000 -3,300 Descending Chicago Center
01:22AM 41.0081 -89.8319 65° Northeast 485 558 26,300 -2,760 Descending Chicago Center
01:24AM 41.0647 -89.6767 64° Northeast 463 533 23,500 -2,700 Descending Chicago Center
01:25AM 41.1194 -89.5253 64° Northeast 453 521 20,900 -2,580 Descending Chicago Center
01:26AM 41.1725 -89.3808 64° Northeast 440 506 18,400 -2,580 Descending Chicago Center
01:27AM 41.2214 -89.2417 65° Northeast 422 486 15,700 -2,760 Descending Chicago Center
01:28AM 41.2750 -89.0908 65° Northeast 410 472 12,900 -2,400 Descending Chicago Center
01:29AM 41.3197 -88.9642 65° Northeast 388 447 10,900 -1,320 Descending Chicago Center
01:30AM 41.3592 -88.8514 65° Northeast 344 396 10,300 -840 Descending Chicago Center
01:31AM 41.3933 -88.7531 65° Northeast 299 344 9,300 -1,380 Descending Chicago Center
01:32AM 41.4297 -88.6550 64° Northeast 296 341 7,600 -1,560 Descending Chicago Center
01:33AM 41.4547 -88.5550 72° East 288 331 6,200 -780 Descending Chicago Center
01:34AM 41.4725 -88.4528 77° East 286 329 6,100 -720 Descending Chicago Center
01:35AM 41.4892 -88.3522 77° East 281 323 4,800 -1,020 Descending Chicago Center
01:36AM 41.5067 -88.2508 77° East 281 323 4,100 -360 Descending Chicago Center
01:37AM 41.5236 -88.1525 77° East 275 316 4,100  Level Chicago Center
01:38AM 41.5411 -88.0528 77° East 274 315 4,100 -600 Level Chicago Center
01:39AM 41.5586 -87.9542 77° East 272 313 3,000 -780 Descending Chicago Center
01:40AM 41.5744 -87.8619 77° East 264 304 2,600 -240 Descending Chicago Center
01:41AM 41.5900 -87.7744 77° East 254 292 2,600  Level Chicago Center
01:42AM 41.6397 -87.7256 36° Northeast 233 268 2,600 -60 Level Chicago Center
01:43AM 41.6883 -87.6800 35° Northeast 224 258 2,500 -300 Descending Chicago Center
01:44AM 41.7333 -87.6831 357° North 186 214 2,000 -600 Descending Chicago Center
01:45AM 41.7603 -87.7183 316° Northwest 153 176 1,300 -540 Descending Chicago Center
01:46AM 41.7900 -87.7581 315° West 146 168 1,000 -300 Descending Chicago Center